Terminal Aerodrome Forecast
Issued by NWS Memphis, TN

Home | Current Version | Previous Version | Text Only | Print | Product List | Glossary On
Versions: 1 2 3 4 5 6 7 8 9 10 11 12 13 14 15 16 17 18 19
000
FTUS44 KMEG 222320
TAFJBR
TAF
KJBR 222320Z 2300/2324 26016G26KT P6SM SCT050
     FM230100 24012G22KT P6SM BKN050
     FM230600 28012G18KT P6SM BKN035
     FM231300 30012G18KT P6SM BKN025=

USA.gov is the U.S. government's official web portal to all federal, state and local government web resources and services.